sensor_id;sensor_type;location;lat;lon;timestamp;pressure;altitude;pressure_sealevel;temperature;humidity
62942;BME280;49042;47.318;19.874;2022-09-09T00:02:55;100158.28;;;19.51;100.00
62942;BME280;49042;47.318;19.874;2022-09-09T00:06:08;100146.66;;;19.67;100.00
62942;BME280;49042;47.318;19.874;2022-09-09T00:09:17;100136.25;;;19.50;100.00
62942;BME280;49042;47.318;19.874;2022-09-09T00:12:45;100140.12;;;19.13;100.00
62942;BME280;49042;47.318;19.874;2022-09-09T00:16:04;100123.41;;;19.09;100.00
62942;BME280;49042;47.318;19.874;2022-09-09T00:19:21;100114.53;;;19.16;100.00
62942;BME280;49042;47.318;19.874;2022-09-09T00:22:25;100108.31;;;19.22;100.00
62942;BME280;49042;47.318;19.874;2022-09-09T00:25:39;100109.16;;;19.29;100.00
62942;BME280;49042;47.318;19.874;2022-09-09T00:32:12;100102.16;;;19.20;100.00
62942;BME280;49042;47.318;19.874;2022-09-09T00:35:23;100109.59;;;18.77;100.00
62942;BME280;49042;47.318;19.874;2022-09-09T00:38:43;100112.31;;;18.71;100.00
62942;BME280;49042;47.318;19.874;2022-09-09T00:48:10;100111.81;;;19.29;100.00
62942;BME280;49042;47.318;19.874;2022-09-09T00:51:22;100113.44;;;19.41;100.00
62942;BME280;49042;47.318;19.874;2022-09-09T00:54:44;100112.50;;;19.44;100.00
62942;BME280;49042;47.318;19.874;2022-09-09T00:57:51;100122.34;;;19.31;100.00
62942;BME280;49042;47.318;19.874;2022-09-09T01:01:03;100136.72;;;18.98;100.00
62942;BME280;49042;47.318;19.874;2022-09-09T01:04:16;100126.88;;;19.18;100.00
62942;BME280;49042;47.318;19.874;2022-09-09T01:07:21;100128.63;;;19.15;100.00
62942;BME280;49042;47.318;19.874;2022-09-09T01:10:49;100126.00;;;19.17;100.00
62942;BME280;49042;47.318;19.874;2022-09-09T01:21:40;100135.13;;;18.80;100.00
62942;BME280;49042;47.318;19.874;2022-09-09T01:24:40;100134.34;;;18.68;100.00
62942;BME280;49042;47.318;19.874;2022-09-09T01:27:44;100115.06;;;18.52;100.00
62942;BME280;49042;47.318;19.874;2022-09-09T01:30:49;100131.66;;;18.75;100.00
62942;BME280;49042;47.318;19.874;2022-09-09T01:33:51;100138.72;;;18.72;100.00
62942;BME280;49042;47.318;19.874;2022-09-09T01:37:11;100145.69;;;18.83;100.00
62942;BME280;49042;47.318;19.874;2022-09-09T01:40:13;100140.41;;;18.77;100.00
62942;BME280;49042;47.318;19.874;2022-09-09T01:43:15;100151.09;;;18.62;100.00
62942;BME280;49042;47.318;19.874;2022-09-09T01:46:18;100155.34;;;18.86;100.00
62942;BME280;49042;47.318;19.874;2022-09-09T01:49:22;100144.78;;;18.84;100.00
62942;BME280;49042;47.318;19.874;2022-09-09T01:52:24;100146.72;;;18.61;100.00
62942;BME280;49042;47.318;19.874;2022-09-09T01:55:33;100145.97;;;18.39;100.00
62942;BME280;49042;47.318;19.874;2022-09-09T01:58:53;100134.53;;;18.38;100.00
62942;BME280;49042;47.318;19.874;2022-09-09T02:02:09;100138.09;;;18.31;100.00
62942;BME280;49042;47.318;19.874;2022-09-09T02:08:40;100154.75;;;18.47;100.00
62942;BME280;49042;47.318;19.874;2022-09-09T02:11:47;100154.72;;;18.50;100.00
62942;BME280;49042;47.318;19.874;2022-09-09T02:15:00;100155.59;;;18.45;100.00
62942;BME280;49042;47.318;19.874;2022-09-09T02:18:07;100153.03;;;18.40;100.00
62942;BME280;49042;47.318;19.874;2022-09-09T02:21:11;100156.59;;;18.28;100.00
62942;BME280;49042;47.318;19.874;2022-09-09T02:24:15;100168.06;;;18.19;100.00
62942;BME280;49042;47.318;19.874;2022-09-09T02:27:18;100156.69;;;18.03;100.00
62942;BME280;49042;47.318;19.874;2022-09-09T02:30:20;100159.41;;;17.85;100.00
62942;BME280;49042;47.318;19.874;2022-09-09T02:33:25;100163.81;;;17.83;100.00
62942;BME280;49042;47.318;19.874;2022-09-09T02:36:32;100168.28;;;17.70;100.00
62942;BME280;49042;47.318;19.874;2022-09-09T02:39:35;100169.13;;;17.72;100.00
62942;BME280;49042;47.318;19.874;2022-09-09T02:42:41;100166.44;;;17.85;100.00
62942;BME280;49042;47.318;19.874;2022-09-09T02:45:52;100162.06;;;17.84;100.00
62942;BME280;49042;47.318;19.874;2022-09-09T02:49:04;100169.94;;;17.88;100.00
62942;BME280;49042;47.318;19.874;2022-09-09T02:52:19;100168.28;;;17.62;100.00
62942;BME280;49042;47.318;19.874;2022-09-09T02:55:35;100168.19;;;17.94;100.00
62942;BME280;49042;47.318;19.874;2022-09-09T02:58:39;100171.78;;;17.64;100.00
62942;BME280;49042;47.318;19.874;2022-09-09T03:01:41;100167.25;;;18.00;100.00
62942;BME280;49042;47.318;19.874;2022-09-09T03:04:43;100173.38;;;18.06;100.00
62942;BME280;49042;47.318;19.874;2022-09-09T03:07:46;100174.31;;;17.96;100.00
62942;BME280;49042;47.318;19.874;2022-09-09T03:10:48;100162.06;;;17.74;100.00
62942;BME280;49042;47.318;19.874;2022-09-09T03:13:49;100161.25;;;17.58;100.00
62942;BME280;49042;47.318;19.874;2022-09-09T03:16:51;100154.16;;;17.76;100.00
62942;BME280;49042;47.318;19.874;2022-09-09T03:19:53;100155.09;;;17.61;100.00
62942;BME280;49042;47.318;19.874;2022-09-09T03:22:57;100153.31;;;17.66;100.00
62942;BME280;49042;47.318;19.874;2022-09-09T03:25:58;100161.19;;;17.75;100.00
62942;BME280;49042;47.318;19.874;2022-09-09T03:29:00;100157.62;;;17.91;100.00
62942;BME280;49042;47.318;19.874;2022-09-09T03:32:02;100158.53;;;17.86;100.00
62942;BME280;49042;47.318;19.874;2022-09-09T03:35:04;100162.03;;;17.90;100.00
62942;BME280;49042;47.318;19.874;2022-09-09T03:38:06;100169.06;;;17.86;100.00
62942;BME280;49042;47.318;19.874;2022-09-09T03:41:09;100174.44;;;17.66;100.00
62942;BME280;49042;47.318;19.874;2022-09-09T03:44:10;100170.03;;;17.70;100.00
62942;BME280;49042;47.318;19.874;2022-09-09T03:47:12;100177.00;;;17.79;100.00
62942;BME280;49042;47.318;19.874;2022-09-09T03:50:14;100185.81;;;17.81;100.00
62942;BME280;49042;47.318;19.874;2022-09-09T03:53:18;100179.69;;;17.60;100.00
62942;BME280;49042;47.318;19.874;2022-09-09T03:56:20;100175.31;;;17.60;100.00
62942;BME280;49042;47.318;19.874;2022-09-09T03:59:23;100173.59;;;17.43;100.00
62942;BME280;49042;47.318;19.874;2022-09-09T04:02:24;100177.13;;;17.31;100.00
62942;BME280;49042;47.318;19.874;2022-09-09T04:05:26;100190.28;;;17.39;100.00
62942;BME280;49042;47.318;19.874;2022-09-09T04:08:29;100197.28;;;17.61;100.00
62942;BME280;49042;47.318;19.874;2022-09-09T04:11:32;100202.53;;;17.64;100.00
62942;BME280;49042;47.318;19.874;2022-09-09T04:14:34;100198.22;;;17.46;100.00
62942;BME280;49042;47.318;19.874;2022-09-09T04:17:36;100193.81;;;17.37;100.00
62942;BME280;49042;47.318;19.874;2022-09-09T04:20:38;100199.94;;;17.56;100.00
62942;BME280;49042;47.318;19.874;2022-09-09T04:23:40;100194.62;;;17.69;100.00
62942;BME280;49042;47.318;19.874;2022-09-09T04:26:42;100196.41;;;17.60;100.00
62942;BME280;49042;47.318;19.874;2022-09-09T04:29:44;100195.56;;;17.36;100.00
62942;BME280;49042;47.318;19.874;2022-09-09T04:32:46;100192.94;;;17.34;100.00
62942;BME280;49042;47.318;19.874;2022-09-09T04:35:49;100194.66;;;17.54;100.00
62942;BME280;49042;47.318;19.874;2022-09-09T04:38:51;100192.94;;;17.31;100.00
62942;BME280;49042;47.318;19.874;2022-09-09T04:41:53;100190.28;;;17.25;100.00
62942;BME280;49042;47.318;19.874;2022-09-09T04:44:54;100191.16;;;17.04;100.00
62942;BME280;49042;47.318;19.874;2022-09-09T04:47:56;100185.91;;;17.05;100.00
62942;BME280;49042;47.318;19.874;2022-09-09T04:51:06;100188.50;;;16.92;100.00
62942;BME280;49042;47.318;19.874;2022-09-09T04:54:08;100182.38;;;16.89;100.00
62942;BME280;49042;47.318;19.874;2022-09-09T04:57:10;100185.87;;;16.80;100.00
62942;BME280;49042;47.318;19.874;2022-09-09T05:00:18;100189.41;;;16.85;100.00
62942;BME280;49042;47.318;19.874;2022-09-09T05:03:20;100196.41;;;17.04;100.00
62942;BME280;49042;47.318;19.874;2022-09-09T05:06:22;100196.44;;;16.91;100.00
62942;BME280;49042;47.318;19.874;2022-09-09T05:09:24;100199.03;;;16.83;100.00
62942;BME280;49042;47.318;19.874;2022-09-09T05:12:25;100189.41;;;16.87;100.00
62942;BME280;49042;47.318;19.874;2022-09-09T05:15:27;100194.66;;;16.96;100.00
62942;BME280;49042;47.318;19.874;2022-09-09T05:18:29;100201.69;;;16.85;100.00
62942;BME280;49042;47.318;19.874;2022-09-09T05:21:31;100202.56;;;17.01;100.00
62942;BME280;49042;47.318;19.874;2022-09-09T05:24:32;100203.47;;;17.01;100.00
62942;BME280;49042;47.318;19.874;2022-09-09T05:27:35;100213.97;;;16.83;100.00
62942;BME280;49042;47.318;19.874;2022-09-09T05:30:36;100209.56;;;16.64;100.00
62942;BME280;49042;47.318;19.874;2022-09-09T05:33:39;100200.78;;;16.86;100.00
62942;BME280;49042;47.318;19.874;2022-09-09T05:36:44;100196.44;;;17.35;100.00
62942;BME280;49042;47.318;19.874;2022-09-09T05:39:46;100199.06;;;17.43;100.00
62942;BME280;49042;47.318;19.874;2022-09-09T05:42:47;100199.97;;;17.42;100.00
62942;BME280;49042;47.318;19.874;2022-09-09T05:46:09;100198.22;;;17.34;100.00
62942;BME280;49042;47.318;19.874;2022-09-09T05:49:11;100200.84;;;17.17;100.00
62942;BME280;49042;47.318;19.874;2022-09-09T05:52:13;100200.84;;;17.46;100.00
62942;BME280;49042;47.318;19.874;2022-09-09T05:55:15;100202.56;;;17.61;100.00
62942;BME280;49042;47.318;19.874;2022-09-09T05:58:17;100196.44;;;17.40;100.00
62942;BME280;49042;47.318;19.874;2022-09-09T06:01:21;100197.31;;;17.40;100.00
62942;BME280;49042;47.318;19.874;2022-09-09T06:04:23;100208.72;;;17.42;100.00
62942;BME280;49042;47.318;19.874;2022-09-09T06:07:25;100214.88;;;17.32;100.00
62942;BME280;49042;47.318;19.874;2022-09-09T06:10:27;100217.50;;;17.57;100.00
62942;BME280;49042;47.318;19.874;2022-09-09T06:13:29;100206.97;;;17.59;100.00
62942;BME280;49042;47.318;19.874;2022-09-09T06:16:33;100211.25;;;17.93;100.00
62942;BME280;49042;47.318;19.874;2022-09-09T06:19:35;100210.28;;;18.24;100.00
62942;BME280;49042;47.318;19.874;2022-09-09T06:22:39;100205.84;;;18.32;100.00
62942;BME280;49042;47.318;19.874;2022-09-09T06:25:42;100213.81;;;18.19;100.00
62942;BME280;49042;47.318;19.874;2022-09-09T06:28:45;100211.91;;;18.48;100.00
62942;BME280;49042;47.318;19.874;2022-09-09T06:31:47;100211.06;;;18.51;100.00
62942;BME280;49042;47.318;19.874;2022-09-09T06:34:49;100209.25;;;18.53;100.00
62942;BME280;49042;47.318;19.874;2022-09-09T06:37:51;100209.28;;;18.48;100.00
62942;BME280;49042;47.318;19.874;2022-09-09T06:40:57;100218.19;;;18.33;100.00
62942;BME280;49042;47.318;19.874;2022-09-09T06:43:59;100216.34;;;18.51;100.00
62942;BME280;49042;47.318;19.874;2022-09-09T06:47:02;100210.97;;;18.64;100.00
62942;BME280;49042;47.318;19.874;2022-09-09T06:50:04;100211.91;;;18.53;100.00
62942;BME280;49042;47.318;19.874;2022-09-09T06:53:07;100209.06;;;18.84;100.00
62942;BME280;49042;47.318;19.874;2022-09-09T06:56:21;100200.25;;;18.86;100.00
62942;BME280;49042;47.318;19.874;2022-09-09T06:59:24;100205.34;;;19.11;95.98
62942;BME280;49042;47.318;19.874;2022-09-09T07:02:26;100209.44;;;19.48;93.80
62942;BME280;49042;47.318;19.874;2022-09-09T07:05:28;100203.97;;;19.67;92.20
62942;BME280;49042;47.318;19.874;2022-09-09T07:08:29;100210.56;;;20.07;90.36
62942;BME280;49042;47.318;19.874;2022-09-09T07:11:41;100199.72;;;20.31;86.21
62942;BME280;49042;47.318;19.874;2022-09-09T07:14:43;100209.47;;;20.26;90.02
62942;BME280;49042;47.318;19.874;2022-09-09T07:17:44;100209.28;;;20.40;87.54
62942;BME280;49042;47.318;19.874;2022-09-09T07:20:53;100215.47;;;20.99;83.50
62942;BME280;49042;47.318;19.874;2022-09-09T07:23:56;100223.69;;;20.83;83.79
62942;BME280;49042;47.318;19.874;2022-09-09T07:26:58;100225.41;;;20.88;83.34
62942;BME280;49042;47.318;19.874;2022-09-09T07:30:01;100220.66;;;21.10;81.31
62942;BME280;49042;47.318;19.874;2022-09-09T07:33:04;100220.75;;;21.02;81.25
62942;BME280;49042;47.318;19.874;2022-09-09T07:39:11;100221.25;;;22.65;73.10
62942;BME280;49042;47.318;19.874;2022-09-09T07:42:14;100219.28;;;23.80;68.30
62942;BME280;49042;47.318;19.874;2022-09-09T07:45:16;100220.00;;;23.85;69.21
62942;BME280;49042;47.318;19.874;2022-09-09T07:48:18;100218.66;;;24.34;65.47
62942;BME280;49042;47.318;19.874;2022-09-09T07:51:28;100225.62;;;24.06;64.24
62942;BME280;49042;47.318;19.874;2022-09-09T07:54:30;100222.16;;;23.72;67.43
62942;BME280;49042;47.318;19.874;2022-09-09T07:57:33;100211.41;;;25.50;59.35
62942;BME280;49042;47.318;19.874;2022-09-09T08:00:34;100208.75;;;24.96;60.19
62942;BME280;49042;47.318;19.874;2022-09-09T08:03:36;100216.72;;;25.24;59.74
62942;BME280;49042;47.318;19.874;2022-09-09T08:06:40;100223.63;;;25.03;60.03
62942;BME280;49042;47.318;19.874;2022-09-09T08:09:42;100224.75;;;26.93;55.77
62942;BME280;49042;47.318;19.874;2022-09-09T08:12:43;100224.50;;;27.43;51.89
62942;BME280;49042;47.318;19.874;2022-09-09T08:16:11;100217.28;;;28.07;50.62
62942;BME280;49042;47.318;19.874;2022-09-09T08:19:13;100212.72;;;28.85;48.21
62942;BME280;49042;47.318;19.874;2022-09-09T08:22:16;100221.84;;;28.05;49.06
62942;BME280;49042;47.318;19.874;2022-09-09T08:25:18;100222.75;;;27.84;49.80
62942;BME280;49042;47.318;19.874;2022-09-09T08:28:19;100223.09;;;27.76;50.52
62942;BME280;49042;47.318;19.874;2022-09-09T08:31:24;100222.41;;;28.31;49.72
62942;BME280;49042;47.318;19.874;2022-09-09T08:34:26;100229.00;;;28.04;49.65
62942;BME280;49042;47.318;19.874;2022-09-09T08:37:28;100229.47;;;28.53;47.38
62942;BME280;49042;47.318;19.874;2022-09-09T08:40:34;100229.94;;;30.04;45.27
62942;BME280;49042;47.318;19.874;2022-09-09T08:43:40;100232.78;;;30.35;42.95
62942;BME280;49042;47.318;19.874;2022-09-09T08:50:37;100231.34;;;29.43;45.47
62942;BME280;49042;47.318;19.874;2022-09-09T08:53:44;100239.63;;;29.21;45.79
62942;BME280;49042;47.318;19.874;2022-09-09T08:56:48;100237.34;;;30.82;41.57
62942;BME280;49042;47.318;19.874;2022-09-09T08:59:51;100224.19;;;33.51;36.03
62942;BME280;49042;47.318;19.874;2022-09-09T09:03:06;100225.31;;;31.35;40.11
62942;BME280;49042;47.318;19.874;2022-09-09T09:09:46;100235.78;;;32.44;37.14
62942;BME280;49042;47.318;19.874;2022-09-09T09:12:53;100225.16;;;33.63;35.38
62942;BME280;49042;47.318;19.874;2022-09-09T09:16:00;100234.50;;;35.81;31.27
62942;BME280;49042;47.318;19.874;2022-09-09T09:19:02;100237.75;;;34.66;32.02
62942;BME280;49042;47.318;19.874;2022-09-09T09:25:18;100229.78;;;35.60;30.86
62942;BME280;49042;47.318;19.874;2022-09-09T09:28:25;100240.34;;;34.92;30.33
62942;BME280;49042;47.318;19.874;2022-09-09T09:31:27;100235.38;;;38.31;26.44
62942;BME280;49042;47.318;19.874;2022-09-09T09:34:29;100225.53;;;37.14;27.53
62942;BME280;49042;47.318;19.874;2022-09-09T09:37:34;100232.53;;;34.88;30.72
62942;BME280;49042;47.318;19.874;2022-09-09T09:40:59;100223.06;;;36.57;27.99
62942;BME280;49042;47.318;19.874;2022-09-09T09:44:02;100216.94;;;36.31;29.06
62942;BME280;49042;47.318;19.874;2022-09-09T09:50:18;100222.25;;;35.87;29.94
62942;BME280;49042;47.318;19.874;2022-09-09T09:53:32;100213.53;;;35.60;29.70
62942;BME280;49042;47.318;19.874;2022-09-09T09:56:35;100216.41;;;34.61;30.17
62942;BME280;49042;47.318;19.874;2022-09-09T09:59:37;100218.34;;;36.92;27.79
62942;BME280;49042;47.318;19.874;2022-09-09T10:02:43;100213.19;;;36.44;28.81
62942;BME280;49042;47.318;19.874;2022-09-09T10:05:45;100208.34;;;34.98;31.11
62942;BME280;49042;47.318;19.874;2022-09-09T10:08:48;100214.19;;;34.04;32.89
62942;BME280;49042;47.318;19.874;2022-09-09T10:15:12;100224.34;;;29.75;41.95
62942;BME280;49042;47.318;19.874;2022-09-09T10:21:49;100234.00;;;27.93;47.94
62942;BME280;49042;47.318;19.874;2022-09-09T10:35:14;100224.50;;;27.85;48.27
62942;BME280;49042;47.318;19.874;2022-09-09T10:38:18;100233.06;;;26.87;51.42
62942;BME280;49042;47.318;19.874;2022-09-09T10:45:16;100230.87;;;27.81;48.72
62942;BME280;49042;47.318;19.874;2022-09-09T10:51:27;100225.62;;;27.79;50.11
62942;BME280;49042;47.318;19.874;2022-09-09T10:57:56;100217.53;;;27.39;48.94
62942;BME280;49042;47.318;19.874;2022-09-09T11:01:03;100216.41;;;27.24;48.12
62942;BME280;49042;47.318;19.874;2022-09-09T11:04:17;100220.44;;;27.34;48.03
62942;BME280;49042;47.318;19.874;2022-09-09T11:07:40;100219.34;;;26.95;48.01
62942;BME280;49042;47.318;19.874;2022-09-09T11:10:50;100223.16;;;27.54;45.68
62942;BME280;49042;47.318;19.874;2022-09-09T11:17:24;100210.59;;;27.56;48.90
62942;BME280;49042;47.318;19.874;2022-09-09T11:20:28;100216.13;;;28.32;44.53
62942;BME280;49042;47.318;19.874;2022-09-09T11:23:42;100207.34;;;28.48;44.00
62942;BME280;49042;47.318;19.874;2022-09-09T11:26:54;100204.09;;;28.41;43.42
62942;BME280;49042;47.318;19.874;2022-09-09T11:33:45;100203.88;;;28.65;42.08
62942;BME280;49042;47.318;19.874;2022-09-09T11:37:53;100204.66;;;27.68;38.94
62942;BME280;49042;47.318;19.874;2022-09-09T11:40:35;100201.84;;;28.12;39.43
62942;BME280;49042;47.318;19.874;2022-09-09T11:43:45;100203.37;;;28.18;39.07
62942;BME280;49042;47.318;19.874;2022-09-09T11:46:50;100196.87;;;28.41;39.56
62942;BME280;49042;47.318;19.874;2022-09-09T11:49:53;100197.84;;;27.61;41.29
62942;BME280;49042;47.318;19.874;2022-09-09T11:59:33;100196.19;;;26.94;46.11
62942;BME280;49042;47.318;19.874;2022-09-09T12:02:34;100185.03;;;26.84;47.00
62942;BME280;49042;47.318;19.874;2022-09-09T12:05:41;100189.75;;;26.55;48.13
62942;BME280;49042;47.318;19.874;2022-09-09T12:08:48;100198.19;;;26.68;48.03
62942;BME280;49042;47.318;19.874;2022-09-09T12:11:53;100201.25;;;26.79;48.34
62942;BME280;49042;47.318;19.874;2022-09-09T12:18:15;100199.00;;;26.91;45.35
62942;BME280;49042;47.318;19.874;2022-09-09T12:21:35;100188.19;;;27.15;43.63
62942;BME280;49042;47.318;19.874;2022-09-09T12:24:46;100187.94;;;27.42;42.87
62942;BME280;49042;47.318;19.874;2022-09-09T12:31:14;100177.06;;;27.26;43.97
62942;BME280;49042;47.318;19.874;2022-09-09T12:40:41;100178.63;;;27.72;40.45
62942;BME280;49042;47.318;19.874;2022-09-09T12:43:42;100176.25;;;28.24;38.20
62942;BME280;49042;47.318;19.874;2022-09-09T12:46:46;100182.22;;;28.50;38.87
62942;BME280;49042;47.318;19.874;2022-09-09T12:49:48;100168.31;;;28.03;39.49
62942;BME280;49042;47.318;19.874;2022-09-09T12:52:53;100168.28;;;27.84;40.37
62942;BME280;49042;47.318;19.874;2022-09-09T12:55:59;100167.28;;;28.44;39.34
62942;BME280;49042;47.318;19.874;2022-09-09T12:59:02;100172.34;;;28.31;39.56
62942;BME280;49042;47.318;19.874;2022-09-09T13:05:34;100165.84;;;29.80;37.83
62942;BME280;49042;47.318;19.874;2022-09-09T13:08:36;100159.28;;;30.18;35.26
62942;BME280;49042;47.318;19.874;2022-09-09T13:11:43;100155.28;;;30.25;36.04
62942;BME280;49042;47.318;19.874;2022-09-09T13:14:52;100147.44;;;28.84;38.32
62942;BME280;49042;47.318;19.874;2022-09-09T13:18:01;100150.62;;;30.76;34.91
62942;BME280;49042;47.318;19.874;2022-09-09T13:21:04;100132.66;;;34.22;30.14
62942;BME280;49042;47.318;19.874;2022-09-09T13:24:31;100130.25;;;37.89;24.54
62942;BME280;49042;47.318;19.874;2022-09-09T13:27:35;100131.41;;;40.93;20.58
62942;BME280;49042;47.318;19.874;2022-09-09T13:30:40;100130.97;;;40.79;20.01
62942;BME280;49042;47.318;19.874;2022-09-09T13:33:44;100124.78;;;39.85;20.43
62942;BME280;49042;47.318;19.874;2022-09-09T13:36:47;100120.75;;;43.12;17.58
62942;BME280;49042;47.318;19.874;2022-09-09T13:39:53;100110.28;;;41.30;17.72
62942;BME280;49042;47.318;19.874;2022-09-09T13:42:57;100119.03;;;40.80;18.36
62942;BME280;49042;47.318;19.874;2022-09-09T13:46:05;100117.59;;;43.73;16.54
62942;BME280;49042;47.318;19.874;2022-09-09T13:49:22;100114.59;;;43.91;15.17
62942;BME280;49042;47.318;19.874;2022-09-09T13:52:26;100113.81;;;44.29;14.82
62942;BME280;49042;47.318;19.874;2022-09-09T13:55:29;100115.88;;;42.32;16.29
62942;BME280;49042;47.318;19.874;2022-09-09T13:58:31;100096.59;;;39.00;20.21
62942;BME280;49042;47.318;19.874;2022-09-09T14:01:33;100111.16;;;34.57;25.08
62942;BME280;49042;47.318;19.874;2022-09-09T14:04:36;100113.38;;;34.27;26.08
62942;BME280;49042;47.318;19.874;2022-09-09T14:07:39;100104.78;;;33.84;27.13
62942;BME280;49042;47.318;19.874;2022-09-09T14:10:42;100095.34;;;32.86;28.94
62942;BME280;49042;47.318;19.874;2022-09-09T14:13:43;100098.09;;;31.88;30.40
62942;BME280;49042;47.318;19.874;2022-09-09T14:16:45;100101.72;;;31.59;32.27
62942;BME280;49042;47.318;19.874;2022-09-09T14:19:47;100101.19;;;29.99;35.86
62942;BME280;49042;47.318;19.874;2022-09-09T14:22:49;100095.41;;;30.22;35.79
62942;BME280;49042;47.318;19.874;2022-09-09T14:25:51;100088.91;;;29.61;36.20
62942;BME280;49042;47.318;19.874;2022-09-09T14:28:56;100088.78;;;28.94;38.38
62942;BME280;49042;47.318;19.874;2022-09-09T14:31:59;100090.12;;;28.50;39.54
62942;BME280;49042;47.318;19.874;2022-09-09T14:35:02;100092.78;;;27.95;38.82
62942;BME280;49042;47.318;19.874;2022-09-09T14:38:08;100094.31;;;27.60;38.93
62942;BME280;49042;47.318;19.874;2022-09-09T14:41:11;100088.03;;;27.61;37.80
62942;BME280;49042;47.318;19.874;2022-09-09T14:44:13;100090.91;;;27.16;38.27
62942;BME280;49042;47.318;19.874;2022-09-09T14:47:16;100086.44;;;27.37;38.70
62942;BME280;49042;47.318;19.874;2022-09-09T14:50:19;100090.06;;;27.75;38.16
62942;BME280;49042;47.318;19.874;2022-09-09T14:53:21;100088.59;;;28.26;37.14
62942;BME280;49042;47.318;19.874;2022-09-09T14:56:26;100078.59;;;28.48;34.81
62942;BME280;49042;47.318;19.874;2022-09-09T14:59:28;100089.13;;;28.70;35.61
62942;BME280;49042;47.318;19.874;2022-09-09T15:02:29;100088.19;;;28.71;36.04
62942;BME280;49042;47.318;19.874;2022-09-09T15:05:31;100081.41;;;28.64;35.53
62942;BME280;49042;47.318;19.874;2022-09-09T15:08:34;100083.12;;;28.83;35.11
62942;BME280;49042;47.318;19.874;2022-09-09T15:11:42;100078.38;;;28.52;35.89
62942;BME280;49042;47.318;19.874;2022-09-09T15:14:46;100089.03;;;28.17;36.47
62942;BME280;49042;47.318;19.874;2022-09-09T15:17:47;100091.56;;;27.81;36.48
62942;BME280;49042;47.318;19.874;2022-09-09T15:20:49;100085.09;;;27.87;37.13
62942;BME280;49042;47.318;19.874;2022-09-09T15:23:52;100090.91;;;27.37;37.99
62942;BME280;49042;47.318;19.874;2022-09-09T15:26:54;100095.78;;;27.67;37.43
62942;BME280;49042;47.318;19.874;2022-09-09T15:29:55;100089.94;;;27.59;38.52
62942;BME280;49042;47.318;19.874;2022-09-09T15:32:59;100088.53;;;27.31;38.10
62942;BME280;49042;47.318;19.874;2022-09-09T15:36:01;100084.63;;;27.17;39.00
62942;BME280;49042;47.318;19.874;2022-09-09T15:39:04;100084.63;;;27.17;39.35
62942;BME280;49042;47.318;19.874;2022-09-09T15:42:07;100088.16;;;26.76;39.37
62942;BME280;49042;47.318;19.874;2022-09-09T15:45:09;100087.16;;;26.57;40.92
62942;BME280;49042;47.318;19.874;2022-09-09T15:48:11;100085.22;;;26.16;44.12
62942;BME280;49042;47.318;19.874;2022-09-09T15:51:13;100089.94;;;25.86;43.18
62942;BME280;49042;47.318;19.874;2022-09-09T15:54:35;100085.03;;;26.43;42.58
62942;BME280;49042;47.318;19.874;2022-09-09T15:57:40;100084.03;;;26.46;43.05
62942;BME280;49042;47.318;19.874;2022-09-09T16:00:42;100076.16;;;26.20;41.30
62942;BME280;49042;47.318;19.874;2022-09-09T16:03:44;100080.19;;;26.08;42.54
62942;BME280;49042;47.318;19.874;2022-09-09T16:06:52;100076.09;;;25.99;42.83
62942;BME280;49042;47.318;19.874;2022-09-09T16:09:54;100077.72;;;26.03;42.82
62942;BME280;49042;47.318;19.874;2022-09-09T16:12:56;100077.94;;;25.73;43.73
62942;BME280;49042;47.318;19.874;2022-09-09T16:15:58;100088.31;;;25.58;45.64
62942;BME280;49042;47.318;19.874;2022-09-09T16:19:07;100088.75;;;25.70;44.35
62942;BME280;49042;47.318;19.874;2022-09-09T16:22:10;100091.53;;;25.66;43.62
62942;BME280;49042;47.318;19.874;2022-09-09T16:25:12;100084.87;;;25.54;45.04
62942;BME280;49042;47.318;19.874;2022-09-09T16:28:14;100085.59;;;25.34;46.43
62942;BME280;49042;47.318;19.874;2022-09-09T16:31:19;100094.87;;;24.98;49.37
62942;BME280;49042;47.318;19.874;2022-09-09T16:34:21;100095.25;;;24.59;50.77
62942;BME280;49042;47.318;19.874;2022-09-09T16:37:23;100093.34;;;24.36;51.83
62942;BME280;49042;47.318;19.874;2022-09-09T16:40:25;100099.25;;;24.17;51.81
62942;BME280;49042;47.318;19.874;2022-09-09T16:43:27;100097.16;;;23.98;53.47
62942;BME280;49042;47.318;19.874;2022-09-09T16:46:31;100089.59;;;23.84;54.76
62942;BME280;49042;47.318;19.874;2022-09-09T16:49:33;100095.13;;;23.78;54.44
62942;BME280;49042;47.318;19.874;2022-09-09T16:52:35;100096.25;;;23.69;54.25
62942;BME280;49042;47.318;19.874;2022-09-09T16:55:40;100094.87;;;23.55;54.54
62942;BME280;49042;47.318;19.874;2022-09-09T16:58:43;100096.09;;;23.41;55.18
62942;BME280;49042;47.318;19.874;2022-09-09T17:01:49;100094.63;;;23.31;55.87
62942;BME280;49042;47.318;19.874;2022-09-09T17:04:51;100093.78;;;23.29;55.65
62942;BME280;49042;47.318;19.874;2022-09-09T17:07:53;100093.84;;;23.27;55.81
62942;BME280;49042;47.318;19.874;2022-09-09T17:10:59;100092.38;;;23.15;56.41
62942;BME280;49042;47.318;19.874;2022-09-09T17:14:00;100091.34;;;23.21;57.55
62942;BME280;49042;47.318;19.874;2022-09-09T17:17:02;100098.94;;;23.02;58.84
62942;BME280;49042;47.318;19.874;2022-09-09T17:20:25;100095.13;;;22.78;61.26
62942;BME280;49042;47.318;19.874;2022-09-09T17:23:27;100105.22;;;22.62;61.36
62942;BME280;49042;47.318;19.874;2022-09-09T17:26:31;100100.69;;;22.67;60.59